Time;durP1;ratioP1;P1;durP2;ratioP2;P2;SDS_P1;SDS_P2;PMS_P1;PMS_P2;Temp;Humidity;BMP_temperature;BMP_pressure;BME280_temperature;BME280_humidity;BME280_pressure;Samples;Min_cycle;Max_cycle;Signal;HPM_P1;HPM_P2
2023/06/14 00:02:10;;;;;;;7.38;4.15;;;;;;;15.34;28.18;95351.72;4999936;28;20069;-70
2023/06/14 00:04:37;;;;;;;7.35;4.00;;;;;;;15.36;27.89;95346.94;5002223;28;20026;-70
2023/06/14 00:07:03;;;;;;;6.50;4.20;;;;;;;15.37;27.85;95351.31;5002026;28;20042;-70
2023/06/14 00:09:28;;;;;;;9.95;4.00;;;;;;;15.31;28.02;95347.63;5000172;28;20126;-70
2023/06/14 00:11:53;;;;;;;6.30;3.92;;;;;;;15.28;27.97;95342.69;5001889;28;20042;-70
2023/06/14 00:14:19;;;;;;;8.32;4.30;;;;;;;15.29;28.03;95338.13;5001721;28;20469;-70
2023/06/14 00:16:44;;;;;;;7.65;4.28;;;;;;;15.21;28.01;95345.41;5001819;28;20034;-71
2023/06/14 00:19:10;;;;;;;8.38;3.83;;;;;;;15.12;28.15;95346.66;5000628;28;20403;-70
2023/06/14 00:21:37;;;;;;;7.95;4.07;;;;;;;15.09;28.13;95344.41;5000731;28;20051;-70
2023/06/14 00:24:04;;;;;;;9.77;4.00;;;;;;;14.95;28.06;95343.66;5001827;28;20033;-70
2023/06/14 00:26:29;;;;;;;7.30;3.75;;;;;;;15.04;28.08;95338.88;5001343;28;20273;-70
2023/06/14 00:28:56;;;;;;;7.15;3.53;;;;;;;15.08;27.91;95338.25;5001820;28;20123;-70
2023/06/14 00:31:21;;;;;;;8.70;3.63;;;;;;;15.10;27.96;95332.66;5000875;28;20445;-70
2023/06/14 00:33:47;;;;;;;5.88;3.63;;;;;;;15.09;28.19;95344.41;5001186;28;20033;-70
2023/06/14 00:36:12;;;;;;;7.05;3.50;;;;;;;15.10;27.71;95341.50;5001295;28;20018;-70
2023/06/14 00:38:37;;;;;;;6.75;3.50;;;;;;;14.95;28.08;95339.13;5001426;28;20033;-70
2023/06/14 00:41:03;;;;;;;5.85;3.50;;;;;;;14.78;28.31;95341.44;5001518;28;20052;-69
2023/06/14 00:43:28;;;;;;;7.20;3.60;;;;;;;14.87;27.98;95338.53;5001314;28;20045;-70
2023/06/14 00:45:54;;;;;;;9.65;3.78;;;;;;;;;;5001368;28;20057;-70
2023/06/14 00:48:19;;;;;;;5.60;3.50;;;;;;;15.01;27.89;95333.94;5001767;28;20124;-70
2023/06/14 00:50:48;;;;;;;5.47;3.60;;;;;;;14.95;28.09;95336.44;4983646;28;20096;-70
2023/06/14 00:53:17;;;;;;;6.00;3.72;;;;;;;14.76;28.43;95340.03;5000621;28;20033;-70
2023/06/14 00:55:42;;;;;;;4.72;3.70;;;;;;;14.88;28.32;95330.28;4999865;28;20391;-70
2023/06/14 00:58:08;;;;;;;5.45;3.40;;;;;;;14.72;28.46;95339.56;5000621;28;20034;-70
2023/06/14 01:00:33;;;;;;;5.38;3.63;;;;;;;14.78;28.27;95337.94;5000117;28;20064;-70
2023/06/14 01:02:59;;;;;;;8.63;3.90;;;;;;;14.80;28.25;95341.25;5024313;23;20056;-70
2023/06/14 01:05:24;;;;;;;5.53;3.53;;;;;;;14.87;27.98;95342.03;5018944;28;20189;-69
2023/06/14 01:08:02;;;;;;;6.10;3.80;;;;;;;14.60;28.98;95347.47;5019083;28;20033;-69
2023/06/14 01:10:36;;;;;;;8.13;4.10;;;;;;;14.32;29.81;95349.34;5019540;28;20045;-69
2023/06/14 01:13:18;;;;;;;5.70;3.50;;;;;;;14.67;28.47;95348.25;5019172;28;20798;-69
2023/06/14 01:15:44;;;;;;;5.63;3.63;;;;;;;14.69;28.51;95346.19;5038939;28;20456;-69
2023/06/14 01:18:17;;;;;;;7.75;3.67;;;;;;;14.56;28.63;95352.44;5039514;28;20032;-70
2023/06/14 01:20:44;;;;;;;6.80;3.97;;;;;;;14.40;29.58;95348.31;5022808;28;20024;-70
2023/06/14 01:23:12;;;;;;;7.47;3.45;;;;;;;14.36;29.02;95351.63;5039486;28;20087;-70
2023/06/14 01:25:38;;;;;;;5.63;3.78;;;;;;;14.13;29.81;95353.72;5038820;28;20023;-70
2023/06/14 01:28:10;;;;;;;6.90;3.95;;;;;;;14.36;28.97;95346.25;5021721;28;20128;-69
2023/06/14 01:30:37;;;;;;;9.07;3.72;;;;;;;14.20;29.26;95351.84;5010966;28;20568;-70
2023/06/14 01:33:02;;;;;;;5.80;3.78;;;;;;;14.07;29.81;95350.00;5005709;28;20021;-70
2023/06/14 01:35:28;;;;;;;6.72;4.10;;;;;;;13.99;30.13;95344.03;5021109;28;20060;-70
2023/06/14 01:37:53;;;;;;;6.10;3.50;;;;;;;14.10;29.85;95347.97;5039300;28;20033;-69
2023/06/14 01:40:19;;;;;;;7.28;3.50;;;;;;;13.69;30.58;95343.41;5006279;28;20027;-69
2023/06/14 01:42:46;;;;;;;6.28;3.70;;;;;;;13.64;30.54;95350.38;5020074;28;20114;-69
2023/06/14 01:45:11;;;;;;;7.13;3.88;;;;;;;13.82;30.24;95345.25;5021388;28;20477;-69
2023/06/14 01:47:37;;;;;;;8.70;3.88;;;;;;;13.92;30.50;95352.06;5019296;28;20040;-69
2023/06/14 01:50:03;;;;;;;5.13;3.65;;;;;;;13.94;30.09;95352.72;5039246;28;20036;-70
2023/06/14 01:52:29;;;;;;;6.53;3.83;;;;;;;13.97;29.80;95344.25;5038109;28;20062;-69
2023/06/14 01:54:54;;;;;;;6.72;3.35;;;;;;;14.08;29.87;95345.50;5038778;28;20547;-69
2023/06/14 01:57:20;;;;;;;7.05;3.30;;;;;;;14.10;29.86;95351.44;5037270;28;20025;-69
2023/06/14 01:59:48;;;;;;;7.13;3.60;;;;;;;14.05;30.03;95346.69;5039082;28;20064;-69
2023/06/14 02:02:13;;;;;;;7.10;3.90;;;;;;;14.07;30.06;95341.97;5033885;28;20580;-69
2023/06/14 02:04:39;;;;;;;10.10;3.88;;;;;;;13.99;30.19;95347.56;5019871;28;20040;-69
2023/06/14 02:07:04;;;;;;;6.88;3.80;;;;;;;14.07;29.98;95349.19;5019510;28;20048;-70
2023/06/14 02:09:29;;;;;;;6.47;3.65;;;;;;;14.00;29.76;95345.72;5019413;28;20130;-70
2023/06/14 02:11:55;;;;;;;5.75;3.50;;;;;;;13.97;30.07;95344.25;5019521;28;20040;-70
2023/06/14 02:14:20;;;;;;;7.10;3.80;;;;;;;13.97;30.28;95343.44;5018518;28;20037;-70
2023/06/14 02:16:48;;;;;;;6.88;3.75;;;;;;;13.79;30.59;95340.31;5020062;28;20033;-70
2023/06/14 02:19:17;;;;;;;4.75;3.65;;;;;;;13.87;30.27;95343.81;5019165;28;20046;-70
2023/06/14 02:21:43;;;;;;;11.00;3.72;;;;;;;13.80;30.77;95338.44;4998913;28;20087;-70
2023/06/14 02:24:08;;;;;;;4.65;3.65;;;;;;;13.79;30.44;95339.47;4985490;28;20116;-70
2023/06/14 02:26:34;;;;;;;4.53;3.55;;;;;;;13.66;30.75;95335.78;5019263;28;20072;-69
2023/06/14 02:28:59;;;;;;;5.60;3.60;;;;;;;13.84;30.44;95337.03;5019685;28;20129;-69
2023/06/14 02:31:25;;;;;;;8.60;3.67;;;;;;;13.65;30.74;95334.13;5019957;28;20033;-69
2023/06/14 02:33:50;;;;;;;6.28;3.80;;;;;;;13.60;31.22;95343.81;5019248;28;20121;-69
2023/06/14 02:36:16;;;;;;;6.75;3.85;;;;;;;13.59;30.74;95345.63;5019295;28;20689;-69
2023/06/14 02:38:41;;;;;;;6.70;3.60;;;;;;;13.52;31.18;95345.63;5019322;28;20087;-69
2023/06/14 02:41:07;;;;;;;5.57;3.60;;;;;;;13.31;31.70;95349.28;5019787;28;20549;-70
2023/06/14 02:43:32;;;;;;;5.95;3.60;;;;;;;13.47;31.30;95347.28;5021740;28;20033;-70
2023/06/14 02:45:58;;;;;;;9.68;3.90;;;;;;;13.49;31.44;95354.06;5004453;28;20088;-70
2023/06/14 02:48:23;;;;;;;4.68;3.65;;;;;;;13.51;31.36;95351.19;5022849;28;20040;-70
2023/06/14 02:50:49;;;;;;;9.05;3.70;;;;;;;13.46;31.46;95342.97;5022717;28;20045;-70
2023/06/14 02:53:14;;;;;;;5.45;3.60;;;;;;;13.48;31.32;95354.25;5022679;28;20029;-70
2023/06/14 02:55:40;;;;;;;9.48;3.50;;;;;;;13.21;32.00;95352.34;5022020;28;20723;-69
2023/06/14 02:58:06;;;;;;;7.90;3.80;;;;;;;13.28;31.54;95350.53;5020477;28;20041;-70
2023/06/14 03:00:31;;;;;;;7.03;3.90;;;;;;;13.21;31.98;95348.84;5022331;28;20060;-70
2023/06/14 03:02:56;;;;;;;7.38;3.70;;;;;;;13.30;31.62;95351.13;5021144;28;20061;-70
2023/06/14 03:05:22;;;;;;;8.55;3.60;;;;;;;13.27;31.43;95348.88;5022352;28;20044;-70
2023/06/14 03:07:50;;;;;;;5.30;3.55;;;;;;;13.16;31.77;95357.50;5022144;28;20041;-70
2023/06/14 03:10:15;;;;;;;;;;;;;;;13.08;31.85;95360.34;5022202;28;20038;-68
2023/06/14 03:12:40;;;;;;;6.93;3.90;;;;;;;12.97;32.97;95361.69;5021791;28;19966;-68
2023/06/14 03:15:06;;;;;;;6.43;3.90;;;;;;;13.00;32.96;95356.81;5020147;28;20242;-68
2023/06/14 03:17:33;;;;;;;6.00;3.78;;;;;;;12.94;32.32;95360.25;5021091;28;20025;-68
2023/06/14 03:20:01;;;;;;;5.68;3.50;;;;;;;12.91;32.41;95353.47;5019396;28;20028;-68
2023/06/14 03:22:28;;;;;;;5.35;3.50;;;;;;;12.74;32.77;95362.81;5021079;28;20084;-68
2023/06/14 03:24:53;;;;;;;5.35;3.45;;;;;;;12.97;32.57;95362.53;5019874;28;20823;-68
2023/06/14 03:27:19;;;;;;;6.82;3.80;;;;;;;12.97;32.32;95367.03;5020371;28;20181;-67
2023/06/14 03:29:45;;;;;;;4.88;3.33;;;;;;;12.99;31.89;95365.84;5020739;28;20117;-68
2023/06/14 03:32:10;;;;;;;6.07;3.40;;;;;;;13.11;31.80;95366.09;5021246;28;20309;-67
2023/06/14 03:34:38;;;;;;;6.95;3.42;;;;;;;13.18;31.87;95368.78;5020875;28;20037;-68
2023/06/14 03:37:03;;;;;;;4.82;3.40;;;;;;;13.21;31.98;95373.75;5021451;28;20037;-68
2023/06/14 03:39:29;;;;;;;6.38;3.58;;;;;;;13.12;32.07;95373.09;5020940;28;20037;-68
2023/06/14 03:41:54;;;;;;;6.03;3.42;;;;;;;13.25;31.81;95379.50;5020888;28;20041;-67
2023/06/14 03:44:20;;;;;;;7.75;3.45;;;;;;;13.24;31.73;95376.03;5021162;28;20029;-69
2023/06/14 03:46:46;;;;;;;4.60;3.53;;;;;;;13.25;31.91;95380.34;5020630;28;20030;-68
2023/06/14 03:49:12;;;;;;;3.97;3.33;;;;;;;13.27;31.64;95385.47;5021029;28;20026;-68
2023/06/14 03:51:37;;;;;;;7.45;3.60;;;;;;;13.28;31.68;95387.97;5020546;28;20128;-68
2023/06/14 03:54:02;;;;;;;6.85;3.80;;;;;;;13.16;32.12;95390.38;5020709;28;20021;-68
2023/06/14 03:56:28;;;;;;;6.18;3.47;;;;;;;13.23;32.03;95402.94;5003736;28;20029;-68
2023/06/14 03:58:53;;;;;;;8.30;3.70;;;;;;;13.32;31.80;95401.72;5020055;28;20045;-68
2023/06/14 04:01:19;;;;;;;4.78;3.20;;;;;;;13.40;31.76;95403.41;5019394;28;20352;-68
2023/06/14 04:03:44;;;;;;;9.43;3.75;;;;;;;13.49;31.65;95409.41;5020718;28;20056;-68
2023/06/14 04:06:10;;;;;;;6.55;3.63;;;;;;;13.50;31.56;95408.38;5020078;28;20049;-68
2023/06/14 04:08:35;;;;;;;8.43;3.45;;;;;;;13.39;32.17;95405.25;5020677;28;20563;-68
2023/06/14 04:11:01;;;;;;;5.50;3.65;;;;;;;13.50;31.84;95408.38;5002275;28;20139;-68
2023/06/14 04:13:27;;;;;;;6.45;3.30;;;;;;;13.44;31.69;95415.34;5019979;28;21024;-67
2023/06/14 04:15:52;;;;;;;7.28;3.33;;;;;;;13.36;32.06;95413.66;5019262;28;20494;-68
2023/06/14 04:18:19;;;;;;;5.22;3.13;;;;;;;13.51;31.84;95420.72;4985922;28;20498;-68
2023/06/14 04:20:45;;;;;;;4.80;3.50;;;;;;;13.52;31.89;95417.84;5018690;28;20124;-68
2023/06/14 04:23:15;;;;;;;7.05;3.33;;;;;;;13.55;31.89;95421.97;5019144;28;20516;-68
2023/06/14 04:25:40;;;;;;;8.05;3.40;;;;;;;13.53;32.30;95419.47;5017422;28;20120;-68
2023/06/14 04:28:08;;;;;;;6.18;3.35;;;;;;;13.55;31.99;95417.44;5020471;28;20056;-68
2023/06/14 04:30:35;;;;;;;6.93;3.53;;;;;;;13.41;32.44;95421.94;5020257;28;20045;-68
2023/06/14 04:33:00;;;;;;;8.15;3.38;;;;;;;13.64;31.86;95417.25;5002551;28;20202;-68
2023/06/14 04:35:27;;;;;;;6.82;3.22;;;;;;;13.77;31.85;95416.47;5019391;28;20351;-67
2023/06/14 04:37:53;;;;;;;4.20;3.20;;;;;;;13.90;31.45;95413.81;5019949;28;20037;-68
2023/06/14 04:40:18;;;;;;;6.15;3.63;;;;;;;13.79;31.87;95419.75;5019471;28;20029;-68
2023/06/14 04:42:46;;;;;;;4.32;3.50;;;;;;;13.88;31.86;95410.53;5019788;28;20128;-68
2023/06/14 04:45:12;;;;;;;8.20;3.30;;;;;;;13.99;31.76;95417.13;5018622;28;20029;-67
2023/06/14 04:47:38;;;;;;;5.00;3.33;;;;;;;14.02;31.58;95423.91;5018365;28;20464;-67
2023/06/14 04:50:04;;;;;;;9.95;3.40;;;;;;;13.78;32.04;95418.94;5019196;28;20036;-68
2023/06/14 04:52:30;;;;;;;11.25;3.60;;;;;;;13.91;31.89;95420.81;5020257;28;20042;-68
2023/06/14 04:54:55;;;;;;;5.97;3.15;;;;;;;14.10;31.80;95425.59;5019185;28;20044;-68
2023/06/14 04:57:21;;;;;;;4.93;3.55;;;;;;;14.05;31.59;95428.88;5000542;28;20034;-68
2023/06/14 04:59:47;;;;;;;5.82;3.60;;;;;;;14.32;31.26;95420.84;5001261;28;20017;-68
2023/06/14 05:02:12;;;;;;;4.07;3.20;;;;;;;14.16;31.67;95425.59;5018557;28;20520;-68
2023/06/14 05:04:41;;;;;;;6.57;3.17;;;;;;;14.40;31.33;95417.97;5019287;28;20034;-68
2023/06/14 05:07:09;;;;;;;8.55;3.20;;;;;;;14.44;31.72;95423.69;5017449;28;20510;-68
2023/06/14 05:09:35;;;;;;;7.25;2.97;;;;;;;14.59;31.13;95420.81;5018804;28;20296;-68
2023/06/14 05:12:01;;;;;;;5.75;3.20;;;;;;;14.69;30.76;95420.41;5001450;28;20112;-68
2023/06/14 05:14:26;;;;;;;5.88;3.50;;;;;;;14.74;30.86;95431.31;5017748;28;20064;-68
2023/06/14 05:16:53;;;;;;;7.35;3.00;;;;;;;14.92;30.74;95427.97;5017880;28;20036;-68
2023/06/14 05:19:18;;;;;;;5.20;3.40;;;;;;;14.87;30.82;95422.44;5018112;28;20527;-69
2023/06/14 05:21:44;;;;;;;6.90;3.40;;;;;;;14.64;31.27;95428.22;5019104;28;20045;-68
2023/06/14 05:24:11;;;;;;;7.32;3.30;;;;;;;14.86;31.37;95426.16;5019749;28;20103;-68
2023/06/14 05:26:36;;;;;;;6.60;3.00;;;;;;;14.83;31.02;95426.56;5018619;28;20137;-68
2023/06/14 05:29:02;;;;;;;4.93;3.10;;;;;;;15.03;30.82;95426.50;5019877;28;20029;-68
2023/06/14 05:31:28;;;;;;;7.35;3.00;;;;;;;14.70;31.26;95430.91;5019100;28;20635;-68
2023/06/14 05:33:53;;;;;;;9.27;3.15;;;;;;;14.76;31.39;95436.47;5018962;28;20026;-69
2023/06/14 05:36:21;;;;;;;8.45;3.08;;;;;;;14.87;31.02;95430.47;5019270;28;20034;-68
2023/06/14 05:38:46;;;;;;;7.78;3.40;;;;;;;15.19;30.79;95435.09;5018973;28;20041;-68
2023/06/14 05:41:12;;;;;;;4.57;2.80;;;;;;;15.23;30.60;95437.16;5019553;28;20332;-68
2023/06/14 05:43:37;;;;;;;7.10;3.00;;;;;;;15.44;30.18;95437.88;5019543;28;20106;-68
2023/06/14 05:46:02;;;;;;;6.72;2.85;;;;;;;15.34;30.56;95437.53;5018946;28;20521;-68
2023/06/14 05:48:28;;;;;;;5.97;3.40;;;;;;;15.33;30.79;95443.94;5019182;28;20543;-68
2023/06/14 05:50:54;;;;;;;7.32;2.72;;;;;;;15.34;30.45;95445.59;5018907;28;20693;-68
2023/06/14 05:53:19;;;;;;;6.57;3.22;;;;;;;15.22;30.95;95451.63;5019059;28;20575;-68
2023/06/14 05:55:45;;;;;;;5.60;3.00;;;;;;;15.73;30.42;95446.47;5018757;28;20083;-69
2023/06/14 05:58:10;;;;;;;4.88;3.00;;;;;;;15.66;30.56;95451.03;5017714;28;20048;-68
2023/06/14 06:00:36;;;;;;;3.75;2.58;;;;;;;15.70;30.64;95457.63;5019037;28;20049;-68
2023/06/14 06:03:01;;;;;;;5.35;2.97;;;;;;;15.94;30.36;95457.88;5018193;28;20060;-68
2023/06/14 06:05:27;;;;;;;4.75;2.60;;;;;;;16.04;30.12;95453.94;5018491;28;20037;-69
2023/06/14 06:07:52;;;;;;;8.38;2.80;;;;;;;16.03;29.71;95458.47;5018091;28;20040;-68
2023/06/14 06:10:17;;;;;;;6.90;2.90;;;;;;;16.06;29.69;95459.88;5017346;28;20041;-68
2023/06/14 06:12:43;;;;;;;3.47;2.88;;;;;;;15.84;29.67;95465.59;5018174;28;20037;-68
2023/06/14 06:15:11;;;;;;;3.83;2.63;;;;;;;16.12;29.86;95465.19;5018051;28;20037;-68
2023/06/14 06:17:37;;;;;;;5.22;2.72;;;;;;;16.46;29.74;95467.66;5002136;28;20193;-69
2023/06/14 06:20:05;;;;;;;3.33;3.00;;;;;;;16.55;28.94;95462.84;5021128;28;20116;-69
2023/06/14 06:22:30;;;;;;;4.88;2.83;;;;;;;16.54;29.10;95474.63;5020289;28;20069;-68
2023/06/14 06:24:56;;;;;;;6.90;3.00;;;;;;;16.88;28.92;95469.78;5016854;28;20425;-68
2023/06/14 06:27:21;;;;;;;5.88;3.00;;;;;;;16.86;28.65;95463.00;5020722;28;20100;-69
2023/06/14 06:29:48;;;;;;;6.80;3.22;;;;;;;16.96;28.90;95479.41;5020885;28;20044;-70
2023/06/14 06:32:14;;;;;;;7.47;3.45;;;;;;;17.14;28.42;95481.31;5021733;28;20037;-70
2023/06/14 06:34:40;;;;;;;7.30;3.78;;;;;;;16.87;28.72;95475.38;5020070;28;20084;-69
2023/06/14 06:37:05;;;;;;;10.07;3.58;;;;;;;17.09;28.86;95480.31;5020667;28;20033;-69
2023/06/14 06:39:31;;;;;;;7.70;3.13;;;;;;;17.31;28.81;95475.38;5021318;28;20038;-69
2023/06/14 06:41:56;;;;;;;7.00;4.45;;;;;;;17.44;28.63;95479.75;5022533;28;20059;-69
2023/06/14 06:44:22;;;;;;;5.10;3.60;;;;;;;17.38;28.49;95491.44;5021638;28;20359;-69
2023/06/14 06:46:47;;;;;;;13.00;8.65;;;;;;;17.18;28.68;95481.72;5019149;28;20040;-69
2023/06/14 06:49:13;;;;;;;7.00;3.55;;;;;;;17.55;27.88;95486.25;5020957;28;20414;-69
2023/06/14 06:51:41;;;;;;;4.25;3.17;;;;;;;17.30;28.62;95486.34;5021432;28;20433;-69
2023/06/14 06:54:08;;;;;;;10.15;6.72;;;;;;;17.23;28.14;95489.94;5020867;28;21206;-69
2023/06/14 06:56:33;;;;;;;9.48;6.55;;;;;;;17.21;28.38;95497.41;5021327;28;20025;-69
2023/06/14 06:58:59;;;;;;;6.63;4.68;;;;;;;17.34;28.32;95495.63;5019847;28;20049;-69
2023/06/14 07:01:25;;;;;;;12.95;10.02;;;;;;;17.25;27.96;95503.16;5020152;28;20536;-69
2023/06/14 07:03:51;;;;;;;12.65;6.63;;;;;;;17.52;27.69;95508.25;5018182;28;20561;-69
2023/06/14 07:06:18;;;;;;;7.97;5.68;;;;;;;17.66;27.65;95500.81;5019913;28;20125;-69
2023/06/14 07:08:44;;;;;;;10.20;7.15;;;;;;;17.84;28.07;95504.53;5020281;28;20025;-69
2023/06/14 07:11:09;;;;;;;12.38;9.43;;;;;;;17.70;28.01;95504.69;5018818;28;20497;-69
2023/06/14 07:13:35;;;;;;;6.70;3.53;;;;;;;18.03;27.53;95503.47;5022356;28;20556;-69
2023/06/14 07:16:00;;;;;;;8.57;6.60;;;;;;;17.97;27.14;95507.06;5021386;28;20449;-69
2023/06/14 07:18:26;;;;;;;5.05;3.08;;;;;;;18.03;28.27;95503.47;5020636;28;20409;-69
2023/06/14 07:20:53;;;;;;;7.45;5.63;;;;;;;18.30;27.71;95513.03;5021132;28;20032;-69
2023/06/14 07:23:19;;;;;;;9.30;5.30;;;;;;;18.35;26.58;95515.06;5021064;28;20529;-69
2023/06/14 07:25:44;;;;;;;5.60;3.65;;;;;;;18.41;26.53;95514.13;5021140;28;20067;-69
2023/06/14 07:28:10;;;;;;;7.93;6.07;;;;;;;18.39;26.46;95517.03;5021350;28;20025;-69
2023/06/14 07:30:35;;;;;;;7.82;3.83;;;;;;;18.40;26.59;95512.47;5019647;28;20084;-69
2023/06/14 07:33:01;;;;;;;5.03;2.47;;;;;;;18.61;26.26;95513.84;5018958;28;20029;-69
2023/06/14 07:35:26;;;;;;;5.35;4.18;;;;;;;18.56;26.64;95511.81;4998645;28;20461;-70
2023/06/14 07:37:52;;;;;;;9.13;4.10;;;;;;;18.72;26.04;95514.06;5021391;28;20045;-69
2023/06/14 07:40:17;;;;;;;9.32;6.30;;;;;;;18.83;26.21;95507.88;5020531;28;20034;-69
2023/06/14 07:42:43;;;;;;;10.77;6.72;;;;;;;18.66;26.77;95515.84;5020947;28;20567;-69
2023/06/14 07:45:09;;;;;;;7.43;5.80;;;;;;;18.68;26.32;95508.34;5020999;28;20037;-69
2023/06/14 07:47:34;;;;;;;5.05;2.70;;;;;;;18.89;26.58;95512.34;5019800;28;20033;-70
2023/06/14 07:50:00;;;;;;;8.05;6.13;;;;;;;18.97;26.31;95519.28;5018168;28;20045;-70
2023/06/14 07:52:25;;;;;;;11.23;7.88;;;;;;;18.99;25.92;95511.75;5020701;28;20025;-70
2023/06/14 07:54:51;;;;;;;9.80;5.88;;;;;;;18.99;26.20;95509.06;5019062;28;20525;-70
2023/06/14 07:57:16;;;;;;;9.65;7.20;;;;;;;19.06;25.76;95509.75;5020212;28;20040;-69
2023/06/14 07:59:42;;;;;;;4.95;3.50;;;;;;;19.32;26.30;95518.47;5017344;28;20571;-70
2023/06/14 08:02:07;;;;;;;8.90;4.70;;;;;;;19.18;26.06;95512.44;5019164;28;20053;-70
2023/06/14 08:04:32;;;;;;;4.55;3.25;;;;;;;19.53;25.56;95508.09;5020779;28;20091;-69
2023/06/14 08:06:59;;;;;;;8.00;4.90;;;;;;;19.51;25.18;95520.19;5019905;28;20037;-69
2023/06/14 08:09:25;;;;;;;6.53;4.53;;;;;;;19.87;23.88;95511.97;4999814;28;20035;-69
2023/06/14 08:11:50;;;;;;;3.05;2.60;;;;;;;19.89;24.33;95512.56;5019036;28;20033;-69
2023/06/14 08:14:16;;;;;;;11.45;7.55;;;;;;;19.42;25.22;95512.47;5016918;28;20776;-69
2023/06/14 08:16:41;;;;;;;6.47;4.53;;;;;;;19.32;24.48;95515.75;5018452;28;20029;-69
2023/06/14 08:19:07;;;;;;;3.80;1.83;;;;;;;19.77;23.79;95516.13;5019542;28;20072;-70
2023/06/14 08:21:33;;;;;;;12.93;6.75;;;;;;;19.37;24.95;95520.44;5017574;28;20355;-69
2023/06/14 08:23:59;;;;;;;7.72;4.10;;;;;;;19.42;24.95;95522.44;5017567;28;20486;-69
2023/06/14 08:26:28;;;;;;;7.10;4.63;;;;;;;19.54;24.78;95531.31;5020953;28;20050;-69
2023/06/14 08:28:54;;;;;;;14.73;9.98;;;;;;;19.92;24.59;95531.00;5001220;28;20037;-69
2023/06/14 08:31:20;;;;;;;10.65;4.35;;;;;;;20.08;24.44;95530.25;5019489;28;20040;-70
2023/06/14 08:33:45;;;;;;;13.07;8.10;;;;;;;20.06;24.02;95526.16;5018788;28;20045;-69
2023/06/14 08:36:11;;;;;;;5.80;3.63;;;;;;;20.28;24.39;95528.16;5021089;28;20029;-69
2023/06/14 08:38:37;;;;;;;4.57;2.35;;;;;;;20.46;24.33;95532.53;5018535;28;20514;-69
2023/06/14 08:41:03;;;;;;;5.57;3.10;;;;;;;20.73;23.51;95527.34;5000243;28;20033;-69
2023/06/14 08:43:28;;;;;;;8.38;4.70;;;;;;;20.50;23.62;95531.00;5000340;28;20041;-70
2023/06/14 08:45:55;;;;;;;6.97;4.68;;;;;;;20.90;23.07;95528.41;5018557;28;20049;-69
2023/06/14 08:48:21;;;;;;;9.73;6.95;;;;;;;20.75;23.52;95527.09;4985772;28;20033;-70
2023/06/14 08:50:47;;;;;;;8.73;6.78;;;;;;;20.77;23.74;95527.66;4984174;28;20040;-69
2023/06/14 08:53:13;;;;;;;3.20;1.92;;;;;;;21.07;21.79;95534.63;5019773;28;20397;-70
2023/06/14 08:55:39;;;;;;;7.32;5.10;;;;;;;21.12;22.39;95531.97;5000879;28;20057;-70
2023/06/14 08:58:05;;;;;;;6.38;4.88;;;;;;;21.01;22.75;95535.63;4983424;28;20043;-70
2023/06/14 09:00:30;;;;;;;11.93;8.90;;;;;;;21.02;22.68;95529.13;5001023;28;20030;-70
2023/06/14 09:02:57;;;;;;;4.28;3.53;;;;;;;21.31;22.74;95525.50;5001094;28;20394;-69
2023/06/14 09:05:26;;;;;;;9.40;5.60;;;;;;;21.43;22.07;95533.50;5018815;28;20127;-70
2023/06/14 09:07:52;;;;;;;2.55;2.35;;;;;;;20.96;22.45;95530.13;5017046;28;20037;-70
2023/06/14 09:10:18;;;;;;;13.82;10.02;;;;;;;20.87;23.10;95533.22;5018948;28;20029;-70
2023/06/14 09:12:43;;;;;;;5.30;4.35;;;;;;;21.29;22.44;95539.28;5018730;28;20048;-70
2023/06/14 09:15:09;;;;;;;8.60;5.53;;;;;;;21.15;23.33;95540.69;4999233;28;20060;-70
2023/06/14 09:17:35;;;;;;;4.80;3.50;;;;;;;21.31;21.94;95537.16;5017951;28;20026;-70
2023/06/14 09:20:13;;;;;;;8.05;5.35;;;;;;;21.28;22.37;95537.63;5018920;28;20068;-70
2023/06/14 09:22:38;;;;;;;10.00;5.18;;;;;;;21.47;22.42;95531.94;5017920;28;20037;-70
2023/06/14 09:25:05;;;;;;;4.68;2.55;;;;;;;21.21;22.88;95537.78;4999974;28;20490;-70
2023/06/14 09:27:30;;;;;;;5.72;3.83;;;;;;;21.61;22.28;95535.09;5017613;28;20248;-70
2023/06/14 09:29:56;;;;;;;7.75;5.40;;;;;;;21.58;21.41;95544.53;5017819;28;20045;-70
2023/06/14 09:32:21;;;;;;;3.80;3.10;;;;;;;21.69;21.76;95547.41;5018046;28;20429;-70
2023/06/14 09:34:47;;;;;;;8.07;5.57;;;;;;;22.02;21.73;95557.31;5000567;28;20493;-70
2023/06/14 09:37:12;;;;;;;10.98;8.13;;;;;;;21.73;22.06;95551.25;5019461;28;20026;-70
2023/06/14 09:39:50;;;;;;;9.33;6.83;;;;;;;21.64;22.45;95558.97;5017217;28;20398;-70
2023/06/14 09:42:18;;;;;;;10.85;6.60;;;;;;;21.94;21.53;95562.34;5016236;28;20796;-71
2023/06/14 09:44:43;;;;;;;3.90;2.75;;;;;;;22.23;21.36;95559.44;5019250;28;20039;-70
2023/06/14 09:47:08;;;;;;;6.30;4.03;;;;;;;22.49;21.03;95565.09;5017692;28;20092;-70
2023/06/14 09:49:34;;;;;;;5.97;2.65;;;;;;;22.52;20.03;95562.72;5000222;28;20317;-70
2023/06/14 09:51:59;;;;;;;10.00;4.68;;;;;;;22.63;20.79;95569.06;5020227;28;20033;-71
2023/06/14 09:54:25;;;;;;;7.55;4.30;;;;;;;22.37;20.70;95565.28;5002900;28;20494;-70
2023/06/14 09:56:50;;;;;;;8.82;5.63;;;;;;;22.34;21.04;95560.34;5021872;28;20022;-70
2023/06/14 09:59:18;;;;;;;3.38;2.00;;;;;;;22.58;20.41;95570.91;5021057;28;20041;-70
2023/06/14 10:01:43;;;;;;;;;;;;;;;22.45;21.26;95561.25;4988159;28;20044;-70
2023/06/14 10:04:09;;;;;;;8.23;4.07;;;;;;;22.71;20.91;95567.75;5022914;28;19921;-70
2023/06/14 10:06:40;;;;;;;9.70;4.90;;;;;;;22.73;21.21;95570.22;5003577;28;20061;-70
2023/06/14 10:09:08;;;;;;;9.05;6.00;;;;;;;22.89;20.77;95566.59;5005403;28;20044;-70
2023/06/14 10:11:33;;;;;;;9.07;6.82;;;;;;;22.88;20.81;95561.41;5020869;28;20291;-70
2023/06/14 10:13:59;;;;;;;9.00;6.50;;;;;;;23.08;20.87;95568.06;5002709;28;20041;-70
2023/06/14 10:16:32;;;;;;;2.53;1.90;;;;;;;23.56;20.04;95574.38;5021490;28;20036;-71
2023/06/14 10:19:20;;;;;;;9.25;5.25;;;;;;;23.19;21.02;95575.25;5022630;28;20047;-70
2023/06/14 10:21:55;;;;;;;2.45;2.03;;;;;;;23.60;19.81;95569.25;5002650;28;20091;-71
2023/06/14 10:24:43;;;;;;;6.03;5.15;;;;;;;23.25;20.25;95576.09;5020908;28;20064;-70
2023/06/14 10:27:11;;;;;;;3.60;2.97;;;;;;;23.35;19.76;95568.00;5003502;28;20061;-70
2023/06/14 10:30:09;;;;;;;5.10;3.55;;;;;;;23.36;19.98;95579.69;5021015;28;20698;-71
2023/06/14 10:32:34;;;;;;;6.03;3.15;;;;;;;23.59;19.92;95566.78;4991810;28;20124;-71
2023/06/14 10:35:11;;;;;;;4.85;3.60;;;;;;;23.12;20.73;95577.34;5001687;28;20034;-71
2023/06/14 10:37:36;;;;;;;6.53;3.80;;;;;;;23.25;20.64;95578.81;5002257;28;20052;-71
2023/06/14 10:40:02;;;;;;;6.18;3.95;;;;;;;23.31;20.38;95580.47;5019583;28;20037;-70
2023/06/14 10:42:33;;;;;;;8.15;5.32;;;;;;;24.06;19.39;95574.09;4989680;28;20048;-73
2023/06/14 10:44:59;;;;;;;5.22;2.40;;;;;;;24.04;19.54;95578.16;5021906;28;20393;-72
2023/06/14 10:47:28;;;;;;;6.30;4.05;;;;;;;24.28;19.51;95578.53;4987195;28;20252;-74
2023/06/14 10:50:03;;;;;;;3.85;2.72;;;;;;;24.41;19.52;95573.69;4998485;28;20285;-70
2023/06/14 10:52:33;;;;;;;8.35;2.05;;;;;;;24.06;19.58;95576.81;5003296;28;20462;-71
2023/06/14 10:55:22;;;;;;;4.15;3.55;;;;;;;24.16;19.84;95575.19;5001294;28;20490;-72
2023/06/14 10:57:55;;;;;;;3.40;2.38;;;;;;;23.65;19.41;95571.16;4999308;28;20042;-72
2023/06/14 11:00:26;;;;;;;3.67;2.20;;;;;;;23.51;19.94;95574.34;5000903;28;20029;-69
2023/06/14 11:03:13;;;;;;;5.25;3.78;;;;;;;23.64;19.99;95569.53;4996717;28;20088;-69
2023/06/14 11:05:47;;;;;;;7.88;3.10;;;;;;;24.06;19.83;95575.97;5001322;28;20608;-69
2023/06/14 11:08:24;;;;;;;5.63;4.10;;;;;;;24.34;19.34;95576.66;4999828;28;20018;-69
2023/06/14 11:10:50;;;;;;;3.78;2.42;;;;;;;24.60;19.24;95565.00;5000879;28;20041;-69
2023/06/14 11:13:16;;;;;;;5.20;3.20;;;;;;;24.74;19.30;95571.53;5000214;28;20029;-69
2023/06/14 11:15:44;;;;;;;5.85;2.95;;;;;;;25.40;18.61;95576.44;4983014;28;20483;-69
2023/06/14 11:18:10;;;;;;;6.95;3.15;;;;;;;25.89;18.60;95577.69;4982575;28;20046;-69
2023/06/14 11:20:35;;;;;;;4.77;2.57;;;;;;;26.02;17.50;95591.84;5001804;28;20026;-68
2023/06/14 11:23:01;;;;;;;4.83;3.60;;;;;;;26.10;17.53;95572.16;4999970;28;20050;-68
2023/06/14 11:25:28;;;;;;;5.63;4.13;;;;;;;26.11;17.37;95562.91;5001237;28;20323;-68
2023/06/14 11:27:53;;;;;;;5.93;4.15;;;;;;;26.56;17.29;95581.19;4998958;28;20037;-68
2023/06/14 11:30:19;;;;;;;4.73;3.13;;;;;;;26.74;17.08;95580.56;5000916;28;20038;-68
2023/06/14 11:32:48;;;;;;;6.57;2.80;;;;;;;27.04;16.99;95585.25;4983597;28;20053;-68